createdAt,value
2022-07-28T00:01:49.132Z,21.20
2022-07-28T00:04:17.972Z,21.10
2022-07-28T00:06:46.696Z,21.20
2022-07-28T00:09:15.719Z,21.10
2022-07-28T00:11:54.167Z,21.10
2022-07-28T00:14:23.891Z,21.10
2022-07-28T00:16:52.843Z,21.20
2022-07-28T00:19:21.428Z,21.10
2022-07-28T00:21:50.088Z,21.10
2022-07-28T00:24:18.780Z,21.10
2022-07-28T00:26:48.769Z,21.10
2022-07-28T00:29:17.570Z,21.10
2022-07-28T00:31:46.345Z,21.10
2022-07-28T00:34:15.449Z,21.10
2022-07-28T00:36:44.281Z,21.10
2022-07-28T00:39:13.525Z,21.10
2022-07-28T00:41:42.792Z,21.10
2022-07-28T00:44:13.167Z,21.00
2022-07-28T00:46:42.088Z,21.00
2022-07-28T00:49:10.829Z,21.00
2022-07-28T00:51:41.120Z,21.00
2022-07-28T00:54:10.320Z,21.00
2022-07-28T00:56:39.855Z,21.00
2022-07-28T00:59:08.421Z,20.90
2022-07-28T01:01:39.286Z,20.90
2022-07-28T01:04:09.190Z,20.90
2022-07-28T01:07:04.741Z,20.90
2022-07-28T01:09:48.326Z,20.80
2022-07-28T01:12:31.606Z,20.80
2022-07-28T01:15:11.237Z,20.70
2022-07-28T01:17:50.975Z,20.70
2022-07-28T01:20:27.238Z,20.70
2022-07-28T01:23:11.744Z,20.70
2022-07-28T01:25:49.784Z,20.60
2022-07-28T01:28:31.160Z,20.60
2022-07-28T01:31:08.200Z,20.60
2022-07-28T01:33:43.155Z,20.50
2022-07-28T01:36:17.014Z,20.50
2022-07-28T01:38:48.896Z,20.50
2022-07-28T01:41:21.698Z,20.50
2022-07-28T01:44:02.337Z,20.50
2022-07-28T01:46:34.170Z,20.40
2022-07-28T01:49:04.197Z,20.40
2022-07-28T01:51:34.823Z,20.40
2022-07-28T01:54:04.909Z,20.40
2022-07-28T01:56:35.780Z,20.40
2022-07-28T01:59:09.832Z,20.30
2022-07-28T02:01:46.013Z,20.30
2022-07-28T02:04:17.471Z,20.20
2022-07-28T02:06:49.555Z,20.30
2022-07-28T02:09:21.271Z,20.30
2022-07-28T02:11:54.430Z,20.20
2022-07-28T02:14:26.334Z,20.30
2022-07-28T02:17:00.891Z,20.20
2022-07-28T02:19:31.272Z,20.30
2022-07-28T02:22:00.161Z,20.30
2022-07-28T02:24:30.827Z,20.20
2022-07-28T02:27:03.049Z,20.20
2022-07-28T02:29:50.709Z,20.20
2022-07-28T02:32:28.743Z,20.20
2022-07-28T02:35:06.252Z,20.20
2022-07-28T02:37:41.476Z,20.20
2022-07-28T02:40:16.175Z,20.20
2022-07-28T02:42:51.397Z,20.20
2022-07-28T02:45:25.576Z,20.20
2022-07-28T02:48:02.649Z,20.20
2022-07-28T02:50:31.660Z,20.10
2022-07-28T02:53:14.904Z,20.10
2022-07-28T02:55:49.321Z,20.10
2022-07-28T02:58:21.015Z,20.00
2022-07-28T03:00:51.586Z,20.00
2022-07-28T03:03:22.942Z,19.90
2022-07-28T03:05:52.130Z,19.90
2022-07-28T03:08:21.196Z,19.90
2022-07-28T03:10:50.120Z,19.90
2022-07-28T03:13:20.294Z,19.90
2022-07-28T03:15:49.396Z,19.90
2022-07-28T03:18:18.056Z,19.90
2022-07-28T03:20:48.297Z,19.80
2022-07-28T03:23:18.090Z,19.80
2022-07-28T03:25:52.126Z,19.80
2022-07-28T03:28:22.992Z,19.80
2022-07-28T03:30:58.901Z,19.80
2022-07-28T03:33:28.958Z,19.80
2022-07-28T03:36:02.500Z,19.70
2022-07-28T03:38:39.096Z,19.70
2022-07-28T03:41:11.085Z,19.70
2022-07-28T03:43:43.676Z,19.70
2022-07-28T03:46:13.744Z,19.60
2022-07-28T03:48:43.432Z,19.60
2022-07-28T03:51:19.737Z,19.60
2022-07-28T03:53:50.633Z,19.60
2022-07-28T03:56:22.482Z,19.50
2022-07-28T03:58:55.213Z,19.50
2022-07-28T04:01:25.159Z,19.50
2022-07-28T04:04:01.982Z,19.50
2022-07-28T04:06:34.833Z,19.50
2022-07-28T04:09:03.667Z,19.50
2022-07-28T04:11:34.468Z,19.50
2022-07-28T04:14:04.790Z,19.50
2022-07-28T04:16:37.176Z,19.50
2022-07-28T04:19:06.268Z,19.50
2022-07-28T04:21:37.056Z,19.50
2022-07-28T04:24:08.691Z,19.50
2022-07-28T04:26:37.936Z,19.50
2022-07-28T04:29:08.543Z,19.50
2022-07-28T04:31:40.533Z,19.40
2022-07-28T04:34:10.090Z,19.50
2022-07-28T04:36:43.593Z,19.50
2022-07-28T04:39:12.452Z,19.40
2022-07-28T04:41:42.692Z,19.40
2022-07-28T04:44:15.906Z,19.40
2022-07-28T04:46:47.945Z,19.40
2022-07-28T04:49:18.585Z,19.40
2022-07-28T04:51:51.261Z,19.40
2022-07-28T04:54:26.578Z,19.40
2022-07-28T04:56:56.491Z,19.40
2022-07-28T04:59:28.413Z,19.40
2022-07-28T05:02:03.042Z,19.40
2022-07-28T05:04:33.409Z,19.40
2022-07-28T05:07:12.722Z,19.40
2022-07-28T05:09:45.855Z,19.40
2022-07-28T05:12:15.259Z,19.40
2022-07-28T05:14:44.871Z,19.40
2022-07-28T05:17:15.639Z,19.40
2022-07-28T05:19:46.650Z,19.40
2022-07-28T05:22:17.587Z,19.40
2022-07-28T05:24:47.850Z,19.40
2022-07-28T05:27:16.760Z,19.40
2022-07-28T05:29:47.323Z,19.40
2022-07-28T05:32:18.151Z,19.30
2022-07-28T05:34:46.964Z,19.30
2022-07-28T05:37:17.013Z,19.30
2022-07-28T05:39:49.630Z,19.30
2022-07-28T05:42:18.417Z,19.30
2022-07-28T05:44:48.080Z,19.30
2022-07-28T05:47:16.865Z,19.30
2022-07-28T05:49:45.614Z,19.30
2022-07-28T05:52:14.659Z,19.30
2022-07-28T05:54:48.200Z,19.30
2022-07-28T05:57:17.359Z,19.30
2022-07-28T05:59:46.218Z,19.30
2022-07-28T06:02:15.007Z,19.30
2022-07-28T06:04:43.855Z,19.30
2022-07-28T06:07:13.103Z,19.30
2022-07-28T06:09:45.199Z,19.30
2022-07-28T06:12:15.677Z,19.40
2022-07-28T06:14:44.225Z,19.40
2022-07-28T06:17:14.917Z,19.40
2022-07-28T06:19:43.917Z,19.40
2022-07-28T06:22:15.363Z,19.40
2022-07-28T06:24:45.162Z,19.50
2022-07-28T06:27:15.718Z,19.50
2022-07-28T06:29:44.736Z,19.50
2022-07-28T06:32:14.023Z,19.50
2022-07-28T06:34:42.666Z,19.50
2022-07-28T06:37:11.430Z,19.50
2022-07-28T06:39:40.299Z,19.60
2022-07-28T06:42:09.023Z,19.60
2022-07-28T06:44:57.884Z,19.60
2022-07-28T06:47:28.137Z,19.70
2022-07-28T06:49:56.889Z,19.60
2022-07-28T06:52:28.356Z,19.60
2022-07-28T06:54:58.241Z,19.70
2022-07-28T06:57:33.746Z,19.70
2022-07-28T07:00:06.774Z,19.80
2022-07-28T07:02:40.157Z,19.80
2022-07-28T07:05:32.256Z,19.80
2022-07-28T07:08:01.594Z,19.80
2022-07-28T07:10:30.671Z,19.80
2022-07-28T07:12:59.417Z,19.90
2022-07-28T07:15:29.856Z,19.90
2022-07-28T07:17:59.986Z,19.90
2022-07-28T07:20:29.081Z,20.00
2022-07-28T07:22:57.752Z,20.00
2022-07-28T07:25:26.325Z,20.10
2022-07-28T07:27:54.933Z,20.10
2022-07-28T07:30:23.601Z,20.10
2022-07-28T07:32:54.730Z,20.20
2022-07-28T07:35:23.447Z,20.30
2022-07-28T07:37:53.343Z,20.30
2022-07-28T07:40:23.970Z,20.30
2022-07-28T07:42:53.605Z,20.40
2022-07-28T07:45:23.195Z,20.40
2022-07-28T07:47:52.226Z,20.40
2022-07-28T07:50:23.101Z,20.50
2022-07-28T07:52:51.918Z,20.50
2022-07-28T07:55:26.914Z,20.60
2022-07-28T07:58:05.202Z,20.60
2022-07-28T08:00:34.316Z,20.70
2022-07-28T08:03:04.880Z,20.70
2022-07-28T08:05:44.087Z,20.80
2022-07-28T08:08:14.309Z,20.80
2022-07-28T08:10:44.603Z,20.80
2022-07-28T08:13:20.556Z,20.90
2022-07-28T08:15:53.816Z,20.90
2022-07-28T08:18:24.128Z,20.90
2022-07-28T08:20:54.299Z,20.90
2022-07-28T08:23:26.293Z,21.00
2022-07-28T08:25:56.893Z,21.10
2022-07-28T08:28:25.668Z,21.10
2022-07-28T08:30:54.460Z,21.10
2022-07-28T08:33:23.569Z,21.20
2022-07-28T08:35:53.828Z,21.30
2022-07-28T08:38:22.431Z,21.40
2022-07-28T08:40:52.578Z,21.50
2022-07-28T08:44:05.010Z,21.50
2022-07-28T08:47:16.459Z,21.60
2022-07-28T08:55:10.812Z,21.80
2022-07-28T08:58:19.752Z,21.80
2022-07-28T09:01:38.903Z,21.90
2022-07-28T09:04:22.759Z,22.00
2022-07-28T09:11:19.514Z,22.10
2022-07-28T09:14:24.913Z,22.20
2022-07-28T09:16:54.378Z,22.30
2022-07-28T09:19:22.949Z,22.40
2022-07-28T09:21:52.161Z,22.50
2022-07-28T09:24:39.554Z,22.60
2022-07-28T09:27:10.441Z,22.70
2022-07-28T09:29:44.021Z,22.80
2022-07-28T09:36:06.739Z,23.00
2022-07-28T09:39:18.578Z,23.10
2022-07-28T09:43:32.010Z,23.20
2022-07-28T09:46:18.702Z,23.30
2022-07-28T09:48:59.296Z,23.40
2022-07-28T09:51:31.386Z,23.50
2022-07-28T09:54:12.923Z,23.50
2022-07-28T09:56:44.358Z,23.60
2022-07-28T09:59:16.199Z,23.70
2022-07-28T10:01:59.938Z,23.70
2022-07-28T10:04:34.964Z,23.80
2022-07-28T10:07:10.016Z,23.90
2022-07-28T10:09:40.234Z,24.00
2022-07-28T10:12:20.943Z,24.00
2022-07-28T10:14:52.145Z,24.10
2022-07-28T10:17:29.167Z,24.10
2022-07-28T10:20:01.625Z,24.10
2022-07-28T10:22:34.122Z,24.20
2022-07-28T10:25:07.829Z,24.20
2022-07-28T10:27:38.922Z,24.20
2022-07-28T10:30:09.429Z,24.30
2022-07-28T10:32:43.557Z,24.30
2022-07-28T10:35:18.926Z,24.40
2022-07-28T10:37:53.292Z,24.40
2022-07-28T10:40:30.100Z,24.50
2022-07-28T10:43:02.148Z,24.50
2022-07-28T10:45:55.083Z,24.60
2022-07-28T10:48:24.041Z,24.60
2022-07-28T10:50:54.066Z,24.70
2022-07-28T10:53:37.349Z,24.70
2022-07-28T10:56:16.655Z,24.80
2022-07-28T10:58:59.114Z,24.80
2022-07-28T11:01:49.075Z,24.90
2022-07-28T11:05:02.072Z,24.90
2022-07-28T11:07:41.893Z,25.00
2022-07-28T11:10:32.754Z,25.00
2022-07-28T11:13:04.491Z,25.10
2022-07-28T11:15:44.354Z,25.10
2022-07-28T11:19:36.668Z,25.20
2022-07-28T11:22:37.349Z,25.20
2022-07-28T11:25:29.967Z,25.30
2022-07-28T11:28:19.318Z,25.30
2022-07-28T11:31:01.589Z,25.40
2022-07-28T11:34:09.255Z,25.40
2022-07-28T11:37:04.139Z,25.40
2022-07-28T11:39:43.887Z,25.50
2022-07-28T11:42:31.134Z,25.60
2022-07-28T11:45:37.774Z,25.60
2022-07-28T11:48:19.557Z,25.70
2022-07-28T11:51:16.523Z,25.70
2022-07-28T11:53:53.606Z,25.80
2022-07-28T11:56:38.609Z,25.80
2022-07-28T11:59:18.616Z,25.90
2022-07-28T12:01:58.879Z,25.90
2022-07-28T12:05:13.631Z,25.90
2022-07-28T12:07:49.985Z,25.90
2022-07-28T12:10:56.075Z,25.90
2022-07-28T12:13:37.966Z,26.00
2022-07-28T12:16:11.777Z,26.00
2022-07-28T12:18:53.792Z,26.10
2022-07-28T12:21:47.534Z,26.10
2022-07-28T12:24:46.001Z,26.20
2022-07-28T12:27:37.736Z,26.20
2022-07-28T12:30:30.672Z,26.20
2022-07-28T12:33:02.559Z,26.20
2022-07-28T12:35:31.489Z,26.30
2022-07-28T12:38:00.795Z,26.30
2022-07-28T12:40:37.853Z,26.30
2022-07-28T12:43:07.709Z,26.40
2022-07-28T12:45:54.062Z,26.50
2022-07-28T12:48:35.791Z,26.50
2022-07-28T12:51:37.731Z,26.50
2022-07-28T12:54:14.717Z,26.60
2022-07-28T13:48:27.266Z,27.30
2022-07-28T13:50:58.856Z,27.30
2022-07-28T13:53:42.482Z,27.30
2022-07-28T13:56:13.883Z,27.30
2022-07-28T13:58:47.509Z,27.30
2022-07-28T14:01:23.831Z,27.30
2022-07-28T14:04:13.138Z,27.30
2022-07-28T14:06:52.519Z,27.30
2022-07-28T14:09:26.462Z,27.30
2022-07-28T14:11:59.967Z,27.40
2022-07-28T14:14:37.541Z,27.50
2022-07-28T14:17:42.791Z,27.50
2022-07-28T14:20:26.741Z,27.60
2022-07-28T14:23:10.808Z,27.70
2022-07-28T14:25:49.641Z,27.70
2022-07-28T14:28:27.074Z,27.80
2022-07-28T14:31:00.249Z,27.90
2022-07-28T14:33:40.421Z,27.90
2022-07-28T14:36:14.461Z,28.00
2022-07-28T14:39:00.859Z,28.00
2022-07-28T14:41:35.444Z,28.00
2022-07-28T14:44:05.381Z,28.10
2022-07-28T14:46:38.566Z,28.10
2022-07-28T14:53:59.040Z,28.10
2022-07-28T14:56:28.626Z,28.10
2022-07-28T14:58:57.517Z,28.00
2022-07-28T15:01:27.851Z,28.00
2022-07-28T15:04:04.888Z,27.90
2022-07-28T15:06:35.886Z,27.90
2022-07-28T15:09:09.483Z,27.90
2022-07-28T15:11:39.808Z,27.80
2022-07-28T15:14:09.137Z,27.80
2022-07-28T15:16:38.567Z,27.70
2022-07-28T15:19:12.628Z,27.70
2022-07-28T15:21:47.779Z,27.60
2022-07-28T15:24:19.969Z,27.60
2022-07-28T15:26:49.796Z,27.60
2022-07-28T15:29:20.351Z,27.60
2022-07-28T15:31:50.670Z,27.60
2022-07-28T15:34:24.460Z,27.50
2022-07-28T15:36:54.825Z,27.60
2022-07-28T15:39:26.257Z,27.50
2022-07-28T15:42:01.854Z,27.60
2022-07-28T15:44:31.512Z,27.50
2022-07-28T15:47:04.582Z,27.50
2022-07-28T15:49:33.855Z,27.50
2022-07-28T15:52:03.023Z,27.50
2022-07-28T15:54:35.251Z,27.60
2022-07-28T15:57:06.683Z,27.50
2022-07-28T15:59:50.276Z,27.50
2022-07-28T16:02:24.090Z,27.50
2022-07-28T16:04:54.721Z,27.50
2022-07-28T16:07:29.040Z,27.40
2022-07-28T16:10:07.532Z,27.40
2022-07-28T16:12:40.150Z,27.40
2022-07-28T16:15:10.833Z,27.40
2022-07-28T16:17:41.783Z,27.40
2022-07-28T16:20:12.773Z,27.40
2022-07-28T16:23:29.749Z,27.30
2022-07-28T16:26:00.691Z,27.30
2022-07-28T16:28:31.955Z,27.30
2022-07-28T16:31:01.668Z,27.30
2022-07-28T16:33:33.159Z,27.30
2022-07-28T16:36:03.733Z,27.30
2022-07-28T16:38:36.231Z,27.20
2022-07-28T16:41:09.404Z,27.20
2022-07-28T16:43:44.754Z,27.20
2022-07-28T16:46:25.279Z,27.20
2022-07-28T16:48:57.958Z,27.20
2022-07-28T16:51:35.038Z,27.20
2022-07-28T16:54:10.084Z,27.20
2022-07-28T17:01:29.941Z,27.10
2022-07-28T17:03:59.213Z,27.10
2022-07-28T17:06:28.974Z,27.10
2022-07-28T17:09:00.322Z,27.00
2022-07-28T17:11:31.469Z,27.00
2022-07-28T17:14:04.369Z,27.00
2022-07-28T17:16:42.810Z,27.00
2022-07-28T17:19:15.890Z,26.90
2022-07-28T17:21:48.873Z,26.90
2022-07-28T17:24:44.905Z,26.90
2022-07-28T17:27:44.647Z,26.90
2022-07-28T17:30:24.401Z,26.90
2022-07-28T17:33:23.982Z,26.80
2022-07-28T17:36:07.252Z,26.80
2022-07-28T17:38:39.025Z,26.80
2022-07-28T17:41:09.986Z,26.80
2022-07-28T17:43:49.245Z,26.80
2022-07-28T17:49:25.173Z,26.80
2022-07-28T17:52:02.943Z,26.80
2022-07-28T17:54:53.775Z,26.70
2022-07-28T17:57:28.676Z,26.70
2022-07-28T18:00:12.525Z,26.70
2022-07-28T18:02:42.327Z,26.70
2022-07-28T18:05:28.606Z,26.60
2022-07-28T18:08:11.899Z,26.60
2022-07-28T18:10:42.778Z,26.60
2022-07-28T18:13:13.921Z,26.60
2022-07-28T18:15:44.524Z,26.60
2022-07-28T18:18:19.187Z,26.50
2022-07-28T18:20:53.370Z,26.50
2022-07-28T18:23:30.505Z,26.50
2022-07-28T18:26:03.197Z,26.50
2022-07-28T18:28:42.612Z,26.50
2022-07-28T18:31:18.879Z,26.40
2022-07-28T18:33:50.080Z,26.40
2022-07-28T18:36:23.637Z,26.40
2022-07-28T18:38:57.132Z,26.40
2022-07-28T18:41:26.845Z,26.30
2022-07-28T18:44:05.408Z,26.40
2022-07-28T18:46:38.617Z,26.30
2022-07-28T18:49:15.123Z,26.30
2022-07-28T18:51:53.355Z,26.20
2022-07-28T18:54:27.609Z,26.20
2022-07-28T18:57:05.634Z,26.20
2022-07-28T18:59:51.755Z,26.20
2022-07-28T19:02:26.461Z,26.20
2022-07-28T19:04:55.665Z,26.10
2022-07-28T19:07:26.221Z,26.10
2022-07-28T19:09:55.289Z,26.10
2022-07-28T19:12:31.810Z,26.10
2022-07-28T19:15:09.923Z,26.10
2022-07-28T19:17:40.925Z,26.00
2022-07-28T19:20:13.327Z,26.00
2022-07-28T19:22:43.957Z,26.00
2022-07-28T19:25:13.234Z,25.90
2022-07-28T19:27:44.296Z,25.90
2022-07-28T19:30:15.557Z,25.90
2022-07-28T19:32:45.982Z,25.90
2022-07-28T19:35:15.382Z,25.80
2022-07-28T19:37:49.598Z,25.80
2022-07-28T19:40:21.364Z,25.80
2022-07-28T19:42:50.555Z,25.70
2022-07-28T19:45:54.917Z,25.70
2022-07-28T19:49:48.242Z,25.70
2022-07-28T19:54:07.125Z,25.70
2022-07-28T19:58:01.766Z,25.60
2022-07-28T20:01:59.673Z,25.60
2022-07-28T20:05:23.634Z,25.60
2022-07-28T20:12:57.958Z,25.50
2022-07-28T20:23:58.893Z,25.40
2022-07-28T20:27:09.631Z,25.40
2022-07-28T20:31:24.353Z,25.40
2022-07-28T20:42:52.798Z,25.30
2022-07-28T20:54:35.634Z,25.30
2022-07-28T20:58:06.190Z,25.30
2022-07-28T21:01:14.998Z,25.20
2022-07-28T21:04:29.045Z,25.30
2022-07-28T21:08:04.510Z,25.20
2022-07-28T21:10:31.289Z,25.20
2022-07-28T21:14:11.903Z,25.20
2022-07-28T21:20:55.469Z,25.20
2022-07-28T21:24:31.837Z,25.10
2022-07-28T21:28:38.955Z,25.10
2022-07-28T21:36:30.836Z,25.00
2022-07-28T21:40:06.588Z,25.10
2022-07-28T21:43:46.372Z,25.10
2022-07-28T21:47:28.437Z,25.00
2022-07-28T22:03:56.593Z,24.90
2022-07-28T22:08:02.393Z,24.90
2022-07-28T22:14:58.320Z,24.90
2022-07-28T22:19:12.905Z,24.90
2022-07-28T22:22:29.289Z,24.80
2022-07-28T22:29:38.471Z,24.90
2022-07-28T22:33:04.633Z,24.90
2022-07-28T22:55:05.990Z,24.90
2022-07-28T23:02:42.885Z,24.70
2022-07-28T23:06:03.686Z,24.80
2022-07-28T23:08:58.798Z,24.70
2022-07-28T23:11:59.528Z,24.70
2022-07-28T23:15:42.827Z,24.70
2022-07-28T23:22:52.225Z,24.70
2022-07-28T23:26:25.434Z,24.70
2022-07-28T23:30:44.452Z,24.70
2022-07-28T23:34:19.236Z,24.60
2022-07-28T23:37:49.456Z,24.60
2022-07-28T23:41:54.684Z,24.60
2022-07-28T23:45:36.593Z,24.60
2022-07-28T23:53:00.429Z,24.60
